sensor_id;sensor_type;location;lat;lon;timestamp;pressure;altitude;pressure_sealevel;temperature;humidity
41515;BME280;27247;48.020;16.720;2023-05-03T00:01:55;100417.88;;;12.23;100.00
41515;BME280;27247;48.020;16.720;2023-05-03T00:06:13;100409.69;;;12.25;100.00
41515;BME280;27247;48.020;16.720;2023-05-03T00:10:24;100411.53;;;12.24;100.00
41515;BME280;27247;48.020;16.720;2023-05-03T00:14:34;100412.34;;;12.25;100.00
41515;BME280;27247;48.020;16.720;2023-05-03T00:18:45;100401.66;;;12.17;100.00
41515;BME280;27247;48.020;16.720;2023-05-03T00:22:55;100394.63;;;12.15;100.00
41515;BME280;27247;48.020;16.720;2023-05-03T00:27:05;100401.66;;;12.17;100.00
41515;BME280;27247;48.020;16.720;2023-05-03T00:31:16;100400.34;;;12.04;100.00
41515;BME280;27247;48.020;16.720;2023-05-03T00:35:26;100412.75;;;11.97;100.00
41515;BME280;27247;48.020;16.720;2023-05-03T00:39:37;100404.22;;;12.02;100.00
41515;BME280;27247;48.020;16.720;2023-05-03T00:43:47;100403.03;;;12.04;100.00
41515;BME280;27247;48.020;16.720;2023-05-03T00:47:57;100405.38;;;11.99;100.00
41515;BME280;27247;48.020;16.720;2023-05-03T00:52:08;100402.38;;;12.02;100.00
41515;BME280;27247;48.020;16.720;2023-05-03T00:56:19;100396.53;;;11.99;100.00
41515;BME280;27247;48.020;16.720;2023-05-03T01:00:31;100409.75;;;12.00;100.00
41515;BME280;27247;48.020;16.720;2023-05-03T01:04:41;100404.38;;;12.00;100.00
41515;BME280;27247;48.020;16.720;2023-05-03T01:13:31;100405.56;;;11.98;100.00
41515;BME280;27247;48.020;16.720;2023-05-03T01:17:50;100417.13;;;11.98;100.00
41515;BME280;27247;48.020;16.720;2023-05-03T01:22:16;100414.78;;;11.95;100.00
41515;BME280;27247;48.020;16.720;2023-05-03T01:26:27;100424.16;;;11.91;100.00
41515;BME280;27247;48.020;16.720;2023-05-03T01:30:38;100418.81;;;11.91;100.00
41515;BME280;27247;48.020;16.720;2023-05-03T01:35:13;100418.31;;;11.88;100.00
41515;BME280;27247;48.020;16.720;2023-05-03T01:39:29;100406.94;;;11.77;100.00
41515;BME280;27247;48.020;16.720;2023-05-03T01:43:42;100404.94;;;11.79;100.00
41515;BME280;27247;48.020;16.720;2023-05-03T01:47:55;100413.44;;;11.83;100.00
41515;BME280;27247;48.020;16.720;2023-05-03T01:52:06;100412.97;;;11.79;100.00
41515;BME280;27247;48.020;16.720;2023-05-03T01:56:16;100408.41;;;11.72;100.00
41515;BME280;27247;48.020;16.720;2023-05-03T02:00:26;100408.41;;;11.72;100.00
41515;BME280;27247;48.020;16.720;2023-05-03T02:04:37;100417.13;;;11.82;100.00
41515;BME280;27247;48.020;16.720;2023-05-03T02:08:47;100412.97;;;11.79;100.00
41515;BME280;27247;48.020;16.720;2023-05-03T02:12:57;100407.59;;;11.71;100.00
41515;BME280;27247;48.020;16.720;2023-05-03T02:17:08;100407.06;;;11.76;100.00
41515;BME280;27247;48.020;16.720;2023-05-03T02:21:19;100403.56;;;11.75;100.00
41515;BME280;27247;48.020;16.720;2023-05-03T02:25:29;100404.25;;;11.61;100.00
41515;BME280;27247;48.020;16.720;2023-05-03T02:29:40;100406.75;;;11.63;100.00
41515;BME280;27247;48.020;16.720;2023-05-03T02:33:50;100402.91;;;11.65;100.00
41515;BME280;27247;48.020;16.720;2023-05-03T02:38:01;100405.91;;;11.62;100.00
41515;BME280;27247;48.020;16.720;2023-05-03T02:42:11;100403.41;;;11.61;100.00
41515;BME280;27247;48.020;16.720;2023-05-03T02:46:21;100409.59;;;11.61;100.00
41515;BME280;27247;48.020;16.720;2023-05-03T02:50:32;100407.59;;;11.63;100.00
41515;BME280;27247;48.020;16.720;2023-05-03T02:54:42;100407.09;;;11.60;100.00
41515;BME280;27247;48.020;16.720;2023-05-03T02:58:53;100417.47;;;11.63;100.00
41515;BME280;27247;48.020;16.720;2023-05-03T03:03:04;100411.09;;;11.56;100.00
41515;BME280;27247;48.020;16.720;2023-05-03T03:07:14;100408.75;;;11.44;100.00
41515;BME280;27247;48.020;16.720;2023-05-03T03:11:25;100404.91;;;11.55;100.00
41515;BME280;27247;48.020;16.720;2023-05-03T03:15:35;100413.63;;;11.49;100.00
41515;BME280;27247;48.020;16.720;2023-05-03T03:19:46;100413.94;;;11.54;100.00
41515;BME280;27247;48.020;16.720;2023-05-03T03:23:56;100415.28;;;11.50;100.00
41515;BME280;27247;48.020;16.720;2023-05-03T03:28:07;100415.78;;;11.54;100.00
41515;BME280;27247;48.020;16.720;2023-05-03T03:32:17;100404.56;;;11.42;100.00
41515;BME280;27247;48.020;16.720;2023-05-03T03:36:27;100416.75;;;11.36;100.00
41515;BME280;27247;48.020;16.720;2023-05-03T03:40:37;100413.25;;;11.44;100.00
41515;BME280;27247;48.020;16.720;2023-05-03T03:44:48;100430.84;;;11.46;100.00
41515;BME280;27247;48.020;16.720;2023-05-03T03:48:59;100421.44;;;11.42;100.00
41515;BME280;27247;48.020;16.720;2023-05-03T03:53:09;100428.47;;;11.43;100.00
41515;BME280;27247;48.020;16.720;2023-05-03T03:57:20;100432.50;;;11.47;100.00
41515;BME280;27247;48.020;16.720;2023-05-03T04:01:31;100428.31;;;11.37;100.00
41515;BME280;27247;48.020;16.720;2023-05-03T04:05:41;100436.69;;;11.50;100.00
41515;BME280;27247;48.020;16.720;2023-05-03T04:09:51;100440.69;;;11.38;100.00
41515;BME280;27247;48.020;16.720;2023-05-03T04:14:02;100447.56;;;11.48;100.00
41515;BME280;27247;48.020;16.720;2023-05-03T04:18:13;100449.91;;;11.51;100.00
41515;BME280;27247;48.020;16.720;2023-05-03T04:22:23;100456.59;;;11.47;100.00
41515;BME280;27247;48.020;16.720;2023-05-03T04:26:34;100455.94;;;11.54;100.00
41515;BME280;27247;48.020;16.720;2023-05-03T04:30:45;100462.78;;;11.48;100.00
41515;BME280;27247;48.020;16.720;2023-05-03T04:34:56;100471.00;;;11.55;100.00
41515;BME280;27247;48.020;16.720;2023-05-03T04:39:07;100467.97;;;11.58;100.00
41515;BME280;27247;48.020;16.720;2023-05-03T04:43:20;100480.19;;;11.60;100.00
41515;BME280;27247;48.020;16.720;2023-05-03T04:47:32;100476.84;;;11.58;100.00
41515;BME280;27247;48.020;16.720;2023-05-03T04:51:42;100468.31;;;11.63;100.00
41515;BME280;27247;48.020;16.720;2023-05-03T04:55:52;100474.50;;;11.63;100.00
41515;BME280;27247;48.020;16.720;2023-05-03T05:00:03;100481.72;;;11.71;100.00
41515;BME280;27247;48.020;16.720;2023-05-03T05:04:19;100481.03;;;11.77;100.00
41515;BME280;27247;48.020;16.720;2023-05-03T05:08:30;100490.63;;;11.79;100.00
41515;BME280;27247;48.020;16.720;2023-05-03T05:12:40;100500.31;;;11.80;100.00
41515;BME280;27247;48.020;16.720;2023-05-03T05:16:50;100502.50;;;11.85;100.00
41515;BME280;27247;48.020;16.720;2023-05-03T05:21:01;100501.66;;;11.93;100.00
41515;BME280;27247;48.020;16.720;2023-05-03T05:25:12;100500.31;;;11.97;100.00
41515;BME280;27247;48.020;16.720;2023-05-03T05:29:22;100513.03;;;12.03;100.00
41515;BME280;27247;48.020;16.720;2023-05-03T05:33:33;100512.69;;;12.06;100.00
41515;BME280;27247;48.020;16.720;2023-05-03T05:37:43;100512.53;;;12.07;100.00
41515;BME280;27247;48.020;16.720;2023-05-03T05:41:54;100522.41;;;12.15;100.00
41515;BME280;27247;48.020;16.720;2023-05-03T05:46:04;100525.06;;;12.23;100.00
41515;BME280;27247;48.020;16.720;2023-05-03T05:50:15;100528.41;;;12.33;99.34
41515;BME280;27247;48.020;16.720;2023-05-03T05:54:25;100541.13;;;12.39;99.29
41515;BME280;27247;48.020;16.720;2023-05-03T05:58:35;100538.78;;;12.44;97.55
41515;BME280;27247;48.020;16.720;2023-05-03T06:02:49;100548.69;;;12.52;98.49
41515;BME280;27247;48.020;16.720;2023-05-03T06:06:59;100544.97;;;12.61;98.16
41515;BME280;27247;48.020;16.720;2023-05-03T06:11:10;100546.78;;;12.69;97.32
41515;BME280;27247;48.020;16.720;2023-05-03T06:15:23;100545.09;;;12.76;97.28
41515;BME280;27247;48.020;16.720;2023-05-03T06:19:33;100550.44;;;12.84;97.04
41515;BME280;27247;48.020;16.720;2023-05-03T06:23:43;100550.94;;;12.88;96.73
41515;BME280;27247;48.020;16.720;2023-05-03T06:27:54;100552.44;;;12.90;96.40
41515;BME280;27247;48.020;16.720;2023-05-03T06:32:04;100570.69;;;12.95;95.77
41515;BME280;27247;48.020;16.720;2023-05-03T06:36:15;100561.09;;;13.00;95.62
41515;BME280;27247;48.020;16.720;2023-05-03T06:40:25;100565.63;;;13.00;95.23
41515;BME280;27247;48.020;16.720;2023-05-03T06:44:36;100553.75;;;12.94;93.99
41515;BME280;27247;48.020;16.720;2023-05-03T06:48:46;100567.84;;;12.88;95.05
41515;BME280;27247;48.020;16.720;2023-05-03T06:52:57;100568.19;;;12.93;95.44
41515;BME280;27247;48.020;16.720;2023-05-03T06:57:07;100569.34;;;12.91;95.28
41515;BME280;27247;48.020;16.720;2023-05-03T07:01:19;100577.56;;;12.89;95.22
41515;BME280;27247;48.020;16.720;2023-05-03T07:05:30;100569.03;;;12.86;94.49
41515;BME280;27247;48.020;16.720;2023-05-03T07:09:40;100572.56;;;12.86;94.24
41515;BME280;27247;48.020;16.720;2023-05-03T07:13:51;100575.06;;;12.88;94.64
41515;BME280;27247;48.020;16.720;2023-05-03T07:18:02;100575.41;;;12.85;93.31
41515;BME280;27247;48.020;16.720;2023-05-03T07:22:12;100579.28;;;12.74;92.29
41515;BME280;27247;48.020;16.720;2023-05-03T07:26:22;100585.16;;;12.77;92.39
41515;BME280;27247;48.020;16.720;2023-05-03T07:30:33;100593.53;;;12.83;92.90
41515;BME280;27247;48.020;16.720;2023-05-03T07:34:43;100594.84;;;12.87;93.95
41515;BME280;27247;48.020;16.720;2023-05-03T07:38:53;100599.56;;;12.85;92.24
41515;BME280;27247;48.020;16.720;2023-05-03T07:43:04;100593.50;;;12.91;91.99
41515;BME280;27247;48.020;16.720;2023-05-03T07:47:14;100588.13;;;12.91;92.26
41515;BME280;27247;48.020;16.720;2023-05-03T07:51:25;100597.66;;;13.01;92.39
41515;BME280;27247;48.020;16.720;2023-05-03T07:55:35;100592.81;;;12.97;91.17
41515;BME280;27247;48.020;16.720;2023-05-03T07:59:47;100606.19;;;13.05;91.67
41515;BME280;27247;48.020;16.720;2023-05-03T08:03:57;100597.28;;;13.21;92.42
41515;BME280;27247;48.020;16.720;2023-05-03T08:08:08;100591.66;;;13.38;92.11
41515;BME280;27247;48.020;16.720;2023-05-03T08:12:18;100601.34;;;13.48;90.70
41515;BME280;27247;48.020;16.720;2023-05-03T08:16:29;100597.13;;;13.61;90.35
41515;BME280;27247;48.020;16.720;2023-05-03T08:20:39;100600.91;;;13.75;90.91
41515;BME280;27247;48.020;16.720;2023-05-03T08:24:51;100593.09;;;13.88;89.61
41515;BME280;27247;48.020;16.720;2023-05-03T08:29:02;100588.78;;;14.02;88.74
41515;BME280;27247;48.020;16.720;2023-05-03T08:33:13;100597.63;;;14.11;88.49
41515;BME280;27247;48.020;16.720;2023-05-03T08:37:23;100598.94;;;14.15;90.15
41515;BME280;27247;48.020;16.720;2023-05-03T08:41:34;100610.28;;;14.25;89.70
41515;BME280;27247;48.020;16.720;2023-05-03T08:45:44;100611.13;;;14.25;87.92
41515;BME280;27247;48.020;16.720;2023-05-03T08:49:55;100608.25;;;14.27;88.29
41515;BME280;27247;48.020;16.720;2023-05-03T08:54:07;100620.81;;;14.12;87.05
41515;BME280;27247;48.020;16.720;2023-05-03T08:58:17;100617.63;;;14.08;87.48
41515;BME280;27247;48.020;16.720;2023-05-03T09:02:28;100614.81;;;14.01;87.13
41515;BME280;27247;48.020;16.720;2023-05-03T09:06:38;100617.63;;;14.08;86.86
41515;BME280;27247;48.020;16.720;2023-05-03T09:10:48;100622.94;;;14.16;88.00
41515;BME280;27247;48.020;16.720;2023-05-03T09:14:59;100609.16;;;14.19;86.43
41515;BME280;27247;48.020;16.720;2023-05-03T09:19:11;100615.22;;;14.36;86.11
41515;BME280;27247;48.020;16.720;2023-05-03T09:27:35;100605.63;;;14.64;84.13
41515;BME280;27247;48.020;16.720;2023-05-03T09:31:57;100593.00;;;14.65;81.64
41515;BME280;27247;48.020;16.720;2023-05-03T09:36:08;100592.81;;;14.66;82.09
41515;BME280;27247;48.020;16.720;2023-05-03T09:40:20;100588.56;;;14.72;82.70
41515;BME280;27247;48.020;16.720;2023-05-03T09:44:49;100582.53;;;14.99;81.68
41515;BME280;27247;48.020;16.720;2023-05-03T09:49:02;100565.09;;;15.10;80.93
41515;BME280;27247;48.020;16.720;2023-05-03T09:53:14;100572.56;;;15.29;81.20
41515;BME280;27247;48.020;16.720;2023-05-03T09:57:28;100558.97;;;15.67;77.98
41515;BME280;27247;48.020;16.720;2023-05-03T10:01:38;100554.53;;;16.23;76.21
41515;BME280;27247;48.020;16.720;2023-05-03T10:05:49;100557.59;;;15.92;74.00
41515;BME280;27247;48.020;16.720;2023-05-03T10:10:00;100564.97;;;15.84;74.62
41515;BME280;27247;48.020;16.720;2023-05-03T10:14:11;100552.31;;;15.84;74.24
41515;BME280;27247;48.020;16.720;2023-05-03T10:18:24;100556.09;;;16.11;75.98
41515;BME280;27247;48.020;16.720;2023-05-03T10:27:15;100557.41;;;16.43;72.42
41515;BME280;27247;48.020;16.720;2023-05-03T10:31:45;100564.25;;;16.46;71.53
41515;BME280;27247;48.020;16.720;2023-05-03T10:35:57;100565.41;;;16.58;73.64
41515;BME280;27247;48.020;16.720;2023-05-03T10:40:13;100569.75;;;16.80;71.89
41515;BME280;27247;48.020;16.720;2023-05-03T10:44:25;100566.25;;;16.86;70.20
41515;BME280;27247;48.020;16.720;2023-05-03T10:48:36;100564.59;;;17.27;69.92
41515;BME280;27247;48.020;16.720;2023-05-03T10:52:47;100564.44;;;17.35;67.75
41515;BME280;27247;48.020;16.720;2023-05-03T10:56:57;100566.66;;;17.24;69.04
41515;BME280;27247;48.020;16.720;2023-05-03T11:01:10;100575.34;;;17.13;70.22
41515;BME280;27247;48.020;16.720;2023-05-03T11:05:22;100575.91;;;17.02;65.34
41515;BME280;27247;48.020;16.720;2023-05-03T11:09:33;100561.78;;;17.00;67.14
41515;BME280;27247;48.020;16.720;2023-05-03T11:13:44;100570.34;;;17.10;67.22
41515;BME280;27247;48.020;16.720;2023-05-03T11:17:54;100557.34;;;16.86;67.79
41515;BME280;27247;48.020;16.720;2023-05-03T11:22:05;100571.28;;;16.89;67.97
41515;BME280;27247;48.020;16.720;2023-05-03T11:26:16;100553.47;;;16.67;67.36
41515;BME280;27247;48.020;16.720;2023-05-03T11:30:27;100562.44;;;16.53;66.78
41515;BME280;27247;48.020;16.720;2023-05-03T11:34:38;100556.34;;;16.94;68.11
41515;BME280;27247;48.020;16.720;2023-05-03T11:38:49;100558.22;;;17.41;68.63
41515;BME280;27247;48.020;16.720;2023-05-03T11:43:00;100557.03;;;17.63;65.19
41515;BME280;27247;48.020;16.720;2023-05-03T11:47:10;100555.88;;;17.31;65.77
41515;BME280;27247;48.020;16.720;2023-05-03T11:51:24;100555.53;;;17.47;66.60
41515;BME280;27247;48.020;16.720;2023-05-03T11:55:47;100556.16;;;17.43;67.91
41515;BME280;27247;48.020;16.720;2023-05-03T12:00:11;100549.91;;;17.42;65.35
41515;BME280;27247;48.020;16.720;2023-05-03T12:04:23;100554.53;;;17.62;66.29
41515;BME280;27247;48.020;16.720;2023-05-03T12:08:35;100554.50;;;17.48;64.63
41515;BME280;27247;48.020;16.720;2023-05-03T12:12:55;100564.25;;;17.43;65.46
41515;BME280;27247;48.020;16.720;2023-05-03T12:17:06;100564.47;;;17.00;67.64
41515;BME280;27247;48.020;16.720;2023-05-03T12:21:20;100558.09;;;17.14;66.36
41515;BME280;27247;48.020;16.720;2023-05-03T12:25:31;100559.78;;;17.15;65.42
41515;BME280;27247;48.020;16.720;2023-05-03T12:29:41;100558.44;;;16.98;65.20
41515;BME280;27247;48.020;16.720;2023-05-03T12:33:52;100558.69;;;16.69;64.52
41515;BME280;27247;48.020;16.720;2023-05-03T12:38:02;100545.97;;;16.97;67.14
41515;BME280;27247;48.020;16.720;2023-05-03T12:42:14;100541.47;;;17.11;66.12
41515;BME280;27247;48.020;16.720;2023-05-03T12:46:24;100545.09;;;16.90;62.81
41515;BME280;27247;48.020;16.720;2023-05-03T12:50:35;100538.19;;;16.81;64.30
41515;BME280;27247;48.020;16.720;2023-05-03T12:54:45;100531.44;;;16.98;65.82
41515;BME280;27247;48.020;16.720;2023-05-03T12:58:55;100526.47;;;17.02;64.15
41515;BME280;27247;48.020;16.720;2023-05-03T13:03:06;100516.97;;;17.19;66.43
41515;BME280;27247;48.020;16.720;2023-05-03T13:07:16;100513.91;;;17.29;64.63
41515;BME280;27247;48.020;16.720;2023-05-03T13:11:28;100507.25;;;17.31;62.29
41515;BME280;27247;48.020;16.720;2023-05-03T13:15:39;100499.31;;;17.16;62.03
41515;BME280;27247;48.020;16.720;2023-05-03T13:19:52;100505.50;;;17.04;62.12
41515;BME280;27247;48.020;16.720;2023-05-03T13:24:02;100498.22;;;17.04;62.74
41515;BME280;27247;48.020;16.720;2023-05-03T13:28:13;100504.84;;;16.95;62.57
41515;BME280;27247;48.020;16.720;2023-05-03T13:32:23;100508.59;;;17.01;63.71
41515;BME280;27247;48.020;16.720;2023-05-03T13:36:33;100508.19;;;17.04;63.45
41515;BME280;27247;48.020;16.720;2023-05-03T13:40:44;100509.28;;;17.16;64.36
41515;BME280;27247;48.020;16.720;2023-05-03T13:44:55;100501.38;;;17.14;63.52
41515;BME280;27247;48.020;16.720;2023-05-03T13:49:06;100498.31;;;17.24;62.88
41515;BME280;27247;48.020;16.720;2023-05-03T13:53:17;100491.88;;;17.25;63.64
41515;BME280;27247;48.020;16.720;2023-05-03T13:57:27;100488.09;;;17.19;63.27
41515;BME280;27247;48.020;16.720;2023-05-03T14:01:38;100486.66;;;17.17;63.18
41515;BME280;27247;48.020;16.720;2023-05-03T14:05:48;100486.00;;;17.08;62.30
41515;BME280;27247;48.020;16.720;2023-05-03T14:09:58;100485.59;;;17.11;61.66
41515;BME280;27247;48.020;16.720;2023-05-03T14:14:09;100483.09;;;17.16;62.36
41515;BME280;27247;48.020;16.720;2023-05-03T14:18:19;100474.38;;;17.14;63.03
41515;BME280;27247;48.020;16.720;2023-05-03T14:22:32;100480.81;;;17.13;61.60
41515;BME280;27247;48.020;16.720;2023-05-03T14:26:42;100481.84;;;17.12;60.81
41515;BME280;27247;48.020;16.720;2023-05-03T14:30:52;100481.19;;;17.04;60.88
41515;BME280;27247;48.020;16.720;2023-05-03T14:35:03;100482.63;;;17.00;61.62
41515;BME280;27247;48.020;16.720;2023-05-03T14:39:13;100480.16;;;17.05;61.90
41515;BME280;27247;48.020;16.720;2023-05-03T14:43:24;100487.03;;;17.07;61.89
41515;BME280;27247;48.020;16.720;2023-05-03T14:47:34;100479.94;;;17.00;61.58
41515;BME280;27247;48.020;16.720;2023-05-03T14:51:44;100493.63;;;16.98;62.31
41515;BME280;27247;48.020;16.720;2023-05-03T14:55:55;100488.25;;;17.05;63.67
41515;BME280;27247;48.020;16.720;2023-05-03T15:00:07;100490.75;;;17.06;62.23
41515;BME280;27247;48.020;16.720;2023-05-03T15:04:23;100488.91;;;17.07;62.07
41515;BME280;27247;48.020;16.720;2023-05-03T15:08:34;100492.94;;;16.83;61.57
41515;BME280;27247;48.020;16.720;2023-05-03T15:12:45;100496.84;;;16.74;61.70
41515;BME280;27247;48.020;16.720;2023-05-03T15:16:56;100493.28;;;16.67;61.64
41515;BME280;27247;48.020;16.720;2023-05-03T15:21:06;100495.44;;;16.56;62.08
41515;BME280;27247;48.020;16.720;2023-05-03T15:25:17;100494.78;;;16.54;64.02
41515;BME280;27247;48.020;16.720;2023-05-03T15:29:27;100491.84;;;16.49;62.74
41515;BME280;27247;48.020;16.720;2023-05-03T15:33:42;100484.78;;;16.48;63.34
41515;BME280;27247;48.020;16.720;2023-05-03T15:37:53;100480.44;;;16.47;63.20
41515;BME280;27247;48.020;16.720;2023-05-03T15:42:04;100489.94;;;16.43;62.54
41515;BME280;27247;48.020;16.720;2023-05-03T15:46:15;100496.63;;;16.47;63.20
41515;BME280;27247;48.020;16.720;2023-05-03T15:50:26;100495.78;;;16.47;64.06
41515;BME280;27247;48.020;16.720;2023-05-03T15:54:36;100502.22;;;16.46;64.28
41515;BME280;27247;48.020;16.720;2023-05-03T15:58:47;100497.22;;;16.43;63.51
41515;BME280;27247;48.020;16.720;2023-05-03T16:02:58;100501.13;;;16.40;63.37
41515;BME280;27247;48.020;16.720;2023-05-03T16:07:09;100503.63;;;16.42;64.18
41515;BME280;27247;48.020;16.720;2023-05-03T16:11:20;100501.13;;;16.40;63.85
41515;BME280;27247;48.020;16.720;2023-05-03T16:15:31;100501.28;;;16.32;63.78
41515;BME280;27247;48.020;16.720;2023-05-03T16:19:41;100485.09;;;16.32;62.93
41515;BME280;27247;48.020;16.720;2023-05-03T16:23:53;100491.88;;;16.21;63.44
41515;BME280;27247;48.020;16.720;2023-05-03T16:28:03;100497.06;;;16.23;63.50
41515;BME280;27247;48.020;16.720;2023-05-03T16:32:14;100497.72;;;16.25;63.68
41515;BME280;27247;48.020;16.720;2023-05-03T16:36:25;100495.06;;;16.32;62.68
41515;BME280;27247;48.020;16.720;2023-05-03T16:40:37;100493.19;;;16.32;62.55
41515;BME280;27247;48.020;16.720;2023-05-03T16:44:47;100494.03;;;16.33;63.59
41515;BME280;27247;48.020;16.720;2023-05-03T16:48:57;100491.38;;;16.39;62.88
41515;BME280;27247;48.020;16.720;2023-05-03T16:53:08;100498.41;;;16.34;62.56
41515;BME280;27247;48.020;16.720;2023-05-03T16:57:18;100498.09;;;16.22;62.50
41515;BME280;27247;48.020;16.720;2023-05-03T17:01:28;100501.13;;;16.12;61.52
41515;BME280;27247;48.020;16.720;2023-05-03T17:05:39;100496.88;;;15.96;60.88
41515;BME280;27247;48.020;16.720;2023-05-03T17:09:49;100495.38;;;15.94;61.69
41515;BME280;27247;48.020;16.720;2023-05-03T17:14:00;100507.91;;;15.80;62.63
41515;BME280;27247;48.020;16.720;2023-05-03T17:18:10;100511.19;;;15.76;63.83
41515;BME280;27247;48.020;16.720;2023-05-03T17:22:20;100506.50;;;15.63;63.86
41515;BME280;27247;48.020;16.720;2023-05-03T17:26:31;100515.69;;;15.54;64.64
41515;BME280;27247;48.020;16.720;2023-05-03T17:30:41;100513.09;;;15.46;64.49
41515;BME280;27247;48.020;16.720;2023-05-03T17:34:51;100519.28;;;15.25;65.20
41515;BME280;27247;48.020;16.720;2023-05-03T17:39:02;100519.88;;;15.06;65.93
41515;BME280;27247;48.020;16.720;2023-05-03T17:43:13;100524.63;;;14.89;66.54
41515;BME280;27247;48.020;16.720;2023-05-03T17:47:27;100535.22;;;14.76;67.88
41515;BME280;27247;48.020;16.720;2023-05-03T17:51:37;100535.22;;;14.61;68.71
41515;BME280;27247;48.020;16.720;2023-05-03T17:55:48;100544.44;;;14.44;69.63
41515;BME280;27247;48.020;16.720;2023-05-03T17:59:58;100534.56;;;14.36;69.91
41515;BME280;27247;48.020;16.720;2023-05-03T18:04:08;100538.06;;;14.22;71.31
41515;BME280;27247;48.020;16.720;2023-05-03T18:08:19;100540.72;;;14.07;72.12
41515;BME280;27247;48.020;16.720;2023-05-03T18:12:30;100562.63;;;13.96;72.64
41515;BME280;27247;48.020;16.720;2023-05-03T18:16:40;100564.25;;;13.82;73.64
41515;BME280;27247;48.020;16.720;2023-05-03T18:21:01;100561.97;;;13.71;74.29
41515;BME280;27247;48.020;16.720;2023-05-03T18:25:12;100572.94;;;13.61;74.55
41515;BME280;27247;48.020;16.720;2023-05-03T18:29:23;100572.47;;;13.58;74.82
41515;BME280;27247;48.020;16.720;2023-05-03T18:33:36;100579.22;;;13.46;75.88
41515;BME280;27247;48.020;16.720;2023-05-03T18:37:49;100573.75;;;13.31;76.79
41515;BME280;27247;48.020;16.720;2023-05-03T18:41:59;100579.00;;;13.16;77.91
41515;BME280;27247;48.020;16.720;2023-05-03T18:46:10;100592.78;;;13.05;78.95
41515;BME280;27247;48.020;16.720;2023-05-03T18:50:25;100605.38;;;12.96;79.47
41515;BME280;27247;48.020;16.720;2023-05-03T18:54:36;100607.59;;;12.85;79.74
41515;BME280;27247;48.020;16.720;2023-05-03T18:58:46;100609.47;;;12.76;80.27
41515;BME280;27247;48.020;16.720;2023-05-03T19:02:57;100610.00;;;12.63;81.05
41515;BME280;27247;48.020;16.720;2023-05-03T19:07:08;100616.69;;;12.59;81.15
41515;BME280;27247;48.020;16.720;2023-05-03T19:11:19;100620.41;;;12.50;81.30
41515;BME280;27247;48.020;16.720;2023-05-03T19:15:29;100625.22;;;12.46;81.81
41515;BME280;27247;48.020;16.720;2023-05-03T19:19:40;100633.44;;;12.37;82.07
41515;BME280;27247;48.020;16.720;2023-05-03T19:23:51;100631.25;;;12.32;82.04
41515;BME280;27247;48.020;16.720;2023-05-03T19:28:01;100630.09;;;12.27;82.34
41515;BME280;27247;48.020;16.720;2023-05-03T19:32:14;100636.28;;;12.19;82.40
41515;BME280;27247;48.020;16.720;2023-05-03T19:36:25;100638.94;;;12.03;82.41
41515;BME280;27247;48.020;16.720;2023-05-03T19:40:36;100627.03;;;11.97;83.11
41515;BME280;27247;48.020;16.720;2023-05-03T19:44:48;100637.06;;;11.87;83.47
41515;BME280;27247;48.020;16.720;2023-05-03T19:48:59;100634.16;;;11.72;83.96
41515;BME280;27247;48.020;16.720;2023-05-03T19:53:11;100630.47;;;11.65;84.36
41515;BME280;27247;48.020;16.720;2023-05-03T19:57:22;100617.88;;;11.58;84.84
41515;BME280;27247;48.020;16.720;2023-05-03T20:01:32;100625.88;;;11.49;84.89
41515;BME280;27247;48.020;16.720;2023-05-03T20:05:43;100623.47;;;11.38;85.41
41515;BME280;27247;48.020;16.720;2023-05-03T20:09:54;100621.09;;;11.27;85.91
41515;BME280;27247;48.020;16.720;2023-05-03T20:14:05;100617.91;;;11.24;86.38
41515;BME280;27247;48.020;16.720;2023-05-03T20:18:15;100619.91;;;11.22;86.00
41515;BME280;27247;48.020;16.720;2023-05-03T20:22:26;100613.38;;;11.24;85.23
41515;BME280;27247;48.020;16.720;2023-05-03T20:26:37;100612.38;;;11.25;85.30
41515;BME280;27247;48.020;16.720;2023-05-03T20:30:47;100613.06;;;11.27;85.60
41515;BME280;27247;48.020;16.720;2023-05-03T20:34:57;100610.50;;;11.17;85.91
41515;BME280;27247;48.020;16.720;2023-05-03T20:39:08;100621.84;;;11.11;86.39
41515;BME280;27247;48.020;16.720;2023-05-03T20:43:18;100623.34;;;11.06;87.28
41515;BME280;27247;48.020;16.720;2023-05-03T20:47:29;100618.94;;;10.97;87.60
41515;BME280;27247;48.020;16.720;2023-05-03T20:51:39;100621.56;;;10.88;87.93
41515;BME280;27247;48.020;16.720;2023-05-03T20:55:54;100615.53;;;10.86;88.07
41515;BME280;27247;48.020;16.720;2023-05-03T21:00:09;100620.88;;;10.86;88.28
41515;BME280;27247;48.020;16.720;2023-05-03T21:04:24;100619.00;;;10.79;88.32
41515;BME280;27247;48.020;16.720;2023-05-03T21:08:35;100617.81;;;10.73;88.63
41515;BME280;27247;48.020;16.720;2023-05-03T21:12:46;100623.31;;;10.72;88.65
41515;BME280;27247;48.020;16.720;2023-05-03T21:16:56;100615.97;;;10.74;88.17
41515;BME280;27247;48.020;16.720;2023-05-03T21:21:06;100619.31;;;10.76;87.81
41515;BME280;27247;48.020;16.720;2023-05-03T21:25:17;100620.63;;;10.72;88.29
41515;BME280;27247;48.020;16.720;2023-05-03T21:29:27;100617.06;;;10.63;88.79
41515;BME280;27247;48.020;16.720;2023-05-03T21:33:38;100618.00;;;10.54;89.77
41515;BME280;27247;48.020;16.720;2023-05-03T21:37:48;100620.09;;;10.42;89.97
41515;BME280;27247;48.020;16.720;2023-05-03T21:41:58;100620.69;;;10.36;90.11
41515;BME280;27247;48.020;16.720;2023-05-03T21:46:09;100614.06;;;10.40;89.81